Time,TemperatureF,DewpointF,PressureIn,WindDirection,WindDirectionDegrees,WindSpeedMPH,WindSpeedGustMPH,Humidity,HourlyPrecipIn,Conditions,Clouds,dailyrainin,SoftwareType,DateUTC
2013-05-03 00:05:00,40.8,29.2,30.21,SSW,208,3.1,4.0,63,0.00,,---,0.00,VWS V14.01,2013-05-03 04:05:00,
2013-05-03 00:10:00,41.0,29.4,30.21,SSW,208,0.0,3.1,63,0.00,,---,0.00,VWS V14.01,2013-05-03 04:10:00,
2013-05-03 00:15:00,41.0,29.4,30.21,SSW,194,1.3,2.2,63,0.00,,---,0.00,VWS V14.01,2013-05-03 04:15:00,
2013-05-03 00:20:00,40.6,29.0,30.21,SSW,194,2.2,4.0,63,0.00,,---,0.00,VWS V14.01,2013-05-03 04:20:00,
2013-05-03 00:25:00,41.0,29.4,30.21,SSW,200,1.8,4.5,63,0.00,,---,0.00,VWS V14.01,2013-05-03 04:25:00,
2013-05-03 00:30:00,41.2,29.6,30.21,SSW,200,1.8,3.1,63,0.00,,---,0.00,VWS V14.01,2013-05-03 04:30:00,
2013-05-03 00:40:00,39.6,30.2,30.21,SSW,200,0.0,0.0,69,0.00,,---,0.00,VWS V14.01,2013-05-03 04:40:00,
2013-05-03 00:45:00,39.2,29.9,30.21,SSW,200,0.0,0.0,69,0.00,,---,0.00,VWS V14.01,2013-05-03 04:45:00,
2013-05-03 00:55:00,39.4,29.0,30.21,SSW,200,4.9,5.8,66,0.00,,---,0.00,VWS V14.01,2013-05-03 04:55:00,
2013-05-03 01:00:00,39.6,30.2,30.21,SSW,208,11.6,13.0,69,0.00,,---,0.00,VWS V14.01,2013-05-03 05:00:00,
2013-05-03 01:10:00,40.3,29.8,30.21,SSW,201,4.0,10.7,66,0.00,,---,0.00,VWS V14.01,2013-05-03 05:10:00,
2013-05-03 01:15:00,40.8,29.2,30.21,SSW,201,0.0,4.0,63,0.00,,---,0.00,VWS V14.01,2013-05-03 05:15:00,
2013-05-03 01:25:00,39.6,29.1,30.21,SSW,201,2.7,3.6,66,0.00,,---,0.00,VWS V14.01,2013-05-03 05:25:00,
2013-05-03 01:30:00,39.6,29.1,30.21,SSW,201,0.0,2.7,66,0.00,,---,0.00,VWS V14.01,2013-05-03 05:30:00,
2013-05-03 01:35:00,39.0,29.7,30.21,SSW,201,0.0,0.0,69,0.00,,---,0.00,VWS V14.01,2013-05-03 05:35:00,
2013-05-03 01:45:00,37.0,28.5,30.21,SSW,202,2.7,3.6,71,0.00,,---,0.00,VWS V14.01,2013-05-03 05:45:00,
2013-05-03 01:50:00,39.6,30.2,30.21,SSW,202,1.8,4.0,69,0.00,,---,0.00,VWS V14.01,2013-05-03 05:50:00,
2013-05-03 02:00:00,39.6,29.1,30.21,SSW,201,1.3,4.5,66,0.00,,---,0.00,VWS V14.01,2013-05-03 06:00:00,
2013-05-03 02:05:00,39.4,30.1,30.21,SSW,202,0.0,4.5,69,0.00,,---,0.00,VWS V14.01,2013-05-03 06:05:00,
2013-05-03 02:15:00,37.8,28.9,30.21,SSW,201,0.0,0.0,70,0.00,,---,0.00,VWS V14.01,2013-05-03 06:15:00,
2013-05-03 02:20:00,38.5,29.2,30.21,SSW,202,4.0,4.5,69,0.00,,---,0.00,VWS V14.01,2013-05-03 06:20:00,
2013-05-03 02:25:00,39.2,29.9,30.21,SSW,202,0.9,4.5,69,0.00,,---,0.00,VWS V14.01,2013-05-03 06:25:00,
2013-05-03 02:35:00,39.4,29.0,30.21,SSW,201,0.0,0.0,66,0.00,,---,0.00,VWS V14.01,2013-05-03 06:35:00,
2013-05-03 02:40:00,38.7,29.7,30.21,SSW,197,0.9,3.6,70,0.00,,---,0.00,VWS V14.01,2013-05-03 06:40:00,
2013-05-03 02:50:00,37.6,29.4,30.21,SSW,197,3.1,4.0,72,0.00,,---,0.00,VWS V14.01,2013-05-03 06:50:00,
2013-05-03 02:55:00,37.0,29.2,30.21,SSW,197,0.0,5.4,73,0.00,,---,0.00,VWS V14.01,2013-05-03 06:55:00,
2013-05-03 03:00:00,36.3,28.8,30.21,SSW,197,0.0,0.0,74,0.00,,---,0.00,VWS V14.01,2013-05-03 07:00:00,
2013-05-03 03:05:00,35.6,28.8,30.21,SSW,197,0.0,0.0,76,0.00,,---,0.00,VWS V14.01,2013-05-03 07:05:00,
2013-05-03 03:10:00,35.2,29.1,30.21,SSW,197,4.0,4.0,78,0.00,,---,0.00,VWS V14.01,2013-05-03 07:10:00,
2013-05-03 03:20:00,37.6,29.4,30.21,SSW,197,2.2,4.0,72,0.00,,---,0.00,VWS V14.01,2013-05-03 07:20:00,
2013-05-03 03:25:00,37.4,29.2,30.21,SSW,197,2.7,4.9,72,0.00,,---,0.00,VWS V14.01,2013-05-03 07:25:00,
2013-05-03 03:35:00,37.4,29.5,30.21,South,169,4.5,5.8,73,0.00,,---,0.00,VWS V14.01,2013-05-03 07:35:00,
2013-05-03 03:40:00,37.0,30.2,30.21,South,170,0.0,4.9,76,0.00,,---,0.00,VWS V14.01,2013-05-03 07:40:00,
2013-05-03 03:45:00,37.4,30.2,30.21,South,170,0.0,0.0,75,0.00,,---,0.00,VWS V14.01,2013-05-03 07:45:00,
2013-05-03 03:50:00,37.4,30.5,30.21,South,176,3.1,4.9,76,0.00,,---,0.00,VWS V14.01,2013-05-03 07:50:00,
2013-05-03 03:55:00,38.3,30.1,30.21,South,176,0.0,4.0,72,0.00,,---,0.00,VWS V14.01,2013-05-03 07:55:00,
2013-05-03 04:05:00,39.2,31.3,30.21,South,176,1.8,4.9,73,0.00,,---,0.00,VWS V14.01,2013-05-03 08:05:00,
2013-05-03 04:10:00,39.4,31.1,30.21,South,176,0.0,2.2,72,0.00,,---,0.00,VWS V14.01,2013-05-03 08:10:00,
2013-05-03 04:15:00,39.0,30.8,30.24,South,176,0.0,0.0,72,0.00,,---,0.00,VWS V14.01,2013-05-03 08:15:00,
2013-05-03 04:25:00,38.7,31.1,30.24,SW,216,8.9,8.9,74,0.00,,---,0.00,VWS V14.01,2013-05-03 08:25:00,
2013-05-03 04:30:00,39.9,30.9,30.24,SW,223,8.9,10.7,70,0.00,,---,0.00,VWS V14.01,2013-05-03 08:30:00,
2013-05-03 04:40:00,40.8,31.5,30.24,SSW,195,0.9,5.4,69,0.00,,---,0.00,VWS V14.01,2013-05-03 08:40:00,
2013-05-03 04:45:00,40.5,31.1,30.24,SSW,195,2.2,3.6,69,0.00,,---,0.00,VWS V14.01,2013-05-03 08:45:00,
2013-05-03 04:55:00,41.7,31.2,30.24,SW,222,8.1,8.9,66,0.00,,---,0.00,VWS V14.01,2013-05-03 08:55:00,
2013-05-03 05:00:00,42.8,31.1,30.24,SW,219,7.2,10.3,63,0.00,,---,0.00,VWS V14.01,2013-05-03 09:00:00,
2013-05-03 05:10:00,43.5,30.6,30.24,SSW,207,5.8,11.2,60,0.00,,---,0.00,VWS V14.01,2013-05-03 09:10:00,
2013-05-03 05:15:00,43.7,30.7,30.24,SSW,207,4.0,7.2,60,0.00,,---,0.00,VWS V14.01,2013-05-03 09:15:00,
2013-05-03 05:25:00,43.3,30.4,30.24,SSW,198,4.5,6.7,60,0.00,,---,0.00,VWS V14.01,2013-05-03 09:25:00,
2013-05-03 05:30:00,43.7,30.7,30.24,SSW,197,8.9,12.5,60,0.00,,---,0.00,VWS V14.01,2013-05-03 09:30:00,
2013-05-03 05:40:00,44.4,31.4,30.24,SW,216,9.4,12.1,60,0.00,,---,0.00,VWS V14.01,2013-05-03 09:40:00,
2013-05-03 05:45:00,44.8,31.8,30.24,SSW,209,8.9,12.1,60,0.00,,---,0.00,VWS V14.01,2013-05-03 09:45:00,
2013-05-03 05:55:00,44.6,31.6,30.24,SSW,192,5.8,9.8,60,0.00,,---,0.00,VWS V14.01,2013-05-03 09:55:00,
2013-05-03 06:00:00,44.4,31.4,30.24,SSW,204,8.1,10.7,60,0.00,,---,0.00,VWS V14.01,2013-05-03 10:00:00,
2013-05-03 06:10:00,45.0,31.9,30.24,South,173,7.2,13.4,60,0.00,,---,0.00,VWS V14.01,2013-05-03 10:10:00,
2013-05-03 06:15:00,45.3,32.3,30.27,SSW,202,8.5,14.3,60,0.00,,---,0.00,VWS V14.01,2013-05-03 10:15:00,
2013-05-03 06:25:00,45.1,32.1,30.27,SSW,205,10.3,11.6,60,0.00,,---,0.00,VWS V14.01,2013-05-03 10:25:00,
2013-05-03 06:30:00,45.1,32.1,30.27,SW,219,12.5,13.0,60,0.00,,---,0.00,VWS V14.01,2013-05-03 10:30:00,
2013-05-03 06:40:00,45.0,31.9,30.27,South,183,8.5,13.9,60,0.00,,---,0.00,VWS V14.01,2013-05-03 10:40:00,
2013-05-03 06:45:00,44.4,31.4,30.27,South,191,6.3,8.9,60,0.00,,---,0.00,VWS V14.01,2013-05-03 10:45:00,
2013-05-03 06:55:00,45.0,31.9,30.27,South,176,5.4,13.9,60,0.00,,---,0.00,VWS V14.01,2013-05-03 10:55:00,
2013-05-03 07:00:00,45.0,31.9,30.27,SSW,200,12.1,13.9,60,0.00,,---,0.00,VWS V14.01,2013-05-03 11:00:00,
2013-05-03 07:05:00,45.0,31.9,30.27,SSW,192,9.4,16.1,60,0.00,,---,0.00,VWS V14.01,2013-05-03 11:05:00,
2013-05-03 07:10:00,45.0,31.9,30.27,SSW,195,17.0,17.0,60,0.00,,---,0.00,VWS V14.01,2013-05-03 11:10:00,
2013-05-03 07:15:00,45.3,32.3,30.27,SSW,194,10.7,17.9,60,0.00,,---,0.00,VWS V14.01,2013-05-03 11:15:00,
2013-05-03 07:20:00,45.7,32.6,30.27,SSW,202,12.5,21.9,60,0.00,,---,0.00,VWS V14.01,2013-05-03 11:20:00,
2013-05-03 07:30:00,45.9,32.8,30.27,SSW,197,12.5,17.9,60,0.00,,---,0.00,VWS V14.01,2013-05-03 11:30:00,
2013-05-03 07:35:00,46.0,33.0,30.27,SSW,202,7.6,18.8,60,0.00,,---,0.00,VWS V14.01,2013-05-03 11:35:00,
2013-05-03 07:45:00,46.6,33.5,30.27,SSW,195,19.2,21.5,60,0.00,,---,0.00,VWS V14.01,2013-05-03 11:45:00,
2013-05-03 07:50:00,47.1,34.0,30.27,South,184,10.3,21.0,60,0.00,,---,0.00,VWS V14.01,2013-05-03 11:50:00,
2013-05-03 08:00:00,47.7,34.0,30.27,SSW,194,14.3,26.4,59,0.00,,---,0.00,VWS V14.01,2013-05-03 12:00:00,
2013-05-03 08:05:00,47.8,34.2,30.27,SSW,197,21.9,23.3,59,0.00,,---,0.00,VWS V14.01,2013-05-03 12:05:00,
2013-05-03 08:15:00,48.6,34.9,30.27,SSW,202,16.1,21.9,59,0.00,,---,0.00,VWS V14.01,2013-05-03 12:15:00,
2013-05-03 08:20:00,48.7,35.1,30.27,SSW,197,20.6,25.5,59,0.00,,---,0.00,VWS V14.01,2013-05-03 12:20:00,
2013-05-03 08:30:00,48.7,35.1,30.27,SSE,153,15.7,25.1,59,0.00,,---,0.00,VWS V14.01,2013-05-03 12:30:00,
2013-05-03 08:35:00,49.3,35.6,30.27,SSE,163,8.9,21.0,59,0.00,,---,0.00,VWS V14.01,2013-05-03 12:35:00,
2013-05-03 08:40:00,49.3,35.6,30.27,SSW,205,13.0,18.3,59,0.00,,---,0.00,VWS V14.01,2013-05-03 12:40:00,
2013-05-03 08:45:00,49.5,35.7,30.27,SE,145,7.6,25.1,59,0.00,,---,0.00,VWS V14.01,2013-05-03 12:45:00,
2013-05-03 08:50:00,49.6,35.9,30.27,SSE,166,10.3,22.4,59,0.00,,---,0.00,VWS V14.01,2013-05-03 12:50:00,
2013-05-03 09:00:00,50.2,36.4,30.27,South,178,13.0,25.5,59,0.00,,---,0.00,VWS V14.01,2013-05-03 13:00:00,
2013-05-03 09:05:00,50.5,36.8,30.27,South,191,15.7,23.3,59,0.00,,---,0.00,VWS V14.01,2013-05-03 13:05:00,
2013-05-03 09:15:00,50.5,36.8,30.27,South,178,8.9,21.9,59,0.00,,---,0.00,VWS V14.01,2013-05-03 13:15:00,
2013-05-03 09:20:00,50.7,36.9,30.27,South,183,9.4,20.1,59,0.00,,---,0.00,VWS V14.01,2013-05-03 13:20:00,
2013-05-03 09:25:00,51.4,37.2,30.27,SSW,194,15.7,18.8,58,0.00,,---,0.00,VWS V14.01,2013-05-03 13:25:00,
2013-05-03 09:30:00,51.8,37.5,30.27,SSW,201,19.7,21.5,58,0.00,,---,0.00,VWS V14.01,2013-05-03 13:30:00,
2013-05-03 09:35:00,52.2,37.8,30.27,South,177,12.5,21.5,58,0.00,,---,0.00,VWS V14.01,2013-05-03 13:35:00,
2013-05-03 09:45:00,52.5,38.2,30.27,South,177,15.7,19.7,58,0.00,,---,0.00,VWS V14.01,2013-05-03 13:45:00,
2013-05-03 09:50:00,53.1,38.7,30.27,SE,145,7.6,17.4,58,0.00,,---,0.00,VWS V14.01,2013-05-03 13:50:00,
2013-05-03 09:55:00,53.4,39.0,30.27,SSE,147,6.3,16.6,58,0.00,,---,0.00,VWS V14.01,2013-05-03 13:55:00,
2013-05-03 10:05:00,52.3,38.0,30.27,South,190,16.6,17.9,58,0.00,,---,0.00,VWS V14.01,2013-05-03 14:05:00,
2013-05-03 10:15:00,52.2,37.8,30.27,SSE,160,10.7,17.0,58,0.00,,---,0.00,VWS V14.01,2013-05-03 14:15:00,
2013-05-03 10:20:00,52.0,37.7,30.27,SSE,147,7.2,16.1,58,0.00,,---,0.00,VWS V14.01,2013-05-03 14:20:00,
2013-05-03 10:25:00,52.9,38.5,30.27,South,170,7.6,13.0,58,0.00,,---,0.00,VWS V14.01,2013-05-03 14:25:00,
2013-05-03 10:35:00,54.9,40.4,30.27,SSE,152,12.1,20.1,58,0.00,,---,0.00,VWS V14.01,2013-05-03 14:35:00,
2013-05-03 10:40:00,55.2,40.7,30.27,SSW,197,9.4,18.8,58,0.00,,---,0.00,VWS V14.01,2013-05-03 14:40:00,
2013-05-03 10:50:00,54.3,39.9,30.27,SSE,154,9.4,21.5,58,0.00,,---,0.00,VWS V14.01,2013-05-03 14:50:00,
2013-05-03 10:55:00,55.0,40.5,30.27,South,177,5.8,15.7,58,0.00,,---,0.00,VWS V14.01,2013-05-03 14:55:00,
2013-05-03 11:05:00,54.5,40.0,30.27,ESE,108,9.4,15.7,58,0.00,,---,0.00,VWS V14.01,2013-05-03 15:05:00,
2013-05-03 11:10:00,54.9,40.4,30.27,South,191,12.5,16.6,58,0.00,,---,0.00,VWS V14.01,2013-05-03 15:10:00,
2013-05-03 11:20:00,55.9,41.4,30.27,East,101,6.3,12.1,58,0.00,,---,0.00,VWS V14.01,2013-05-03 15:20:00,
2013-05-03 11:25:00,56.8,41.8,30.27,SSE,160,6.3,9.8,57,0.00,,---,0.00,VWS V14.01,2013-05-03 15:25:00,
2013-05-03 11:35:00,57.0,42.0,30.27,SE,130,7.2,14.3,57,0.00,,---,0.00,VWS V14.01,2013-05-03 15:35:00,
2013-05-03 11:40:00,56.3,41.3,30.27,SE,133,9.4,14.3,57,0.00,,---,0.00,VWS V14.01,2013-05-03 15:40:00,
2013-05-03 11:50:00,57.7,42.6,30.27,ESE,109,11.2,11.6,57,0.00,,---,0.00,VWS V14.01,2013-05-03 15:50:00,
2013-05-03 11:55:00,58.3,43.1,30.27,SSE,157,7.6,11.2,57,0.00,,---,0.00,VWS V14.01,2013-05-03 15:55:00,
2013-05-03 12:00:00,58.1,43.0,30.27,South,176,4.0,15.7,57,0.00,,---,0.00,VWS V14.01,2013-05-03 16:00:00,
2013-05-03 12:10:00,58.3,43.1,30.27,SE,138,6.7,12.1,57,0.00,,---,0.00,VWS V14.01,2013-05-03 16:10:00,
2013-05-03 12:15:00,58.5,43.3,30.27,SSE,153,9.8,11.2,57,0.00,,---,0.00,VWS V14.01,2013-05-03 16:15:00,
2013-05-03 12:30:00,60.3,44.5,30.27,ESE,123,7.2,11.2,56,0.00,,---,0.00,VWS V14.01,2013-05-03 16:30:00,
2013-05-03 12:40:00,61.7,45.9,30.27,SSW,207,0.0,5.4,56,0.00,,---,0.00,VWS V14.01,2013-05-03 16:40:00,
2013-05-03 12:45:00,60.8,45.0,30.24,SSE,160,2.7,9.4,56,0.00,,---,0.00,VWS V14.01,2013-05-03 16:45:00,
2013-05-03 12:55:00,59.9,44.2,30.24,South,183,1.3,12.5,56,0.00,,---,0.00,VWS V14.01,2013-05-03 16:55:00,
2013-05-03 13:00:00,60.3,44.5,30.24,SE,140,1.3,11.2,56,0.00,,---,0.00,VWS V14.01,2013-05-03 17:00:00,
2013-05-03 13:05:00,60.4,44.7,30.24,SSW,198,5.4,11.6,56,0.00,,---,0.00,VWS V14.01,2013-05-03 17:05:00,
2013-05-03 13:15:00,62.2,46.4,30.24,SW,223,6.3,8.5,56,0.00,,---,0.00,VWS V14.01,2013-05-03 17:15:00,
2013-05-03 13:20:00,60.8,45.0,30.24,SSE,154,2.7,12.5,56,0.00,,---,0.00,VWS V14.01,2013-05-03 17:20:00,
2013-05-03 13:30:00,61.2,45.4,30.24,SW,218,5.4,12.5,56,0.00,,---,0.00,VWS V14.01,2013-05-03 17:30:00,
2013-05-03 13:35:00,61.0,45.2,30.24,SSE,167,2.2,11.6,56,0.00,,---,0.00,VWS V14.01,2013-05-03 17:35:00,
2013-05-03 13:40:00,61.9,46.0,30.24,SSW,212,1.8,9.8,56,0.00,,---,0.00,VWS V14.01,2013-05-03 17:40:00,
2013-05-03 13:45:00,61.7,45.9,30.24,SSE,164,0.0,9.8,56,0.00,,---,0.00,VWS V14.01,2013-05-03 17:45:00,
2013-05-03 13:50:00,63.3,47.4,30.24,South,191,6.3,6.3,56,0.00,,---,0.00,VWS V14.01,2013-05-03 17:50:00,
2013-05-03 14:00:00,62.4,46.5,30.24,South,190,8.5,9.8,56,0.00,,---,0.00,VWS V14.01,2013-05-03 18:00:00,
2013-05-03 14:05:00,62.6,46.7,30.24,ENE,73,4.0,12.5,56,0.00,,---,0.00,VWS V14.01,2013-05-03 18:05:00,
2013-05-03 14:15:00,64.0,48.0,30.24,SSE,150,20.1,20.1,56,0.00,,---,0.00,VWS V14.01,2013-05-03 18:15:00,
2013-05-03 14:20:00,61.5,45.7,30.24,SSE,163,6.3,20.1,56,0.00,,---,0.00,VWS V14.01,2013-05-03 18:20:00,
2013-05-03 14:25:00,61.5,45.7,30.24,ESE,111,4.9,8.5,56,0.00,,---,0.00,VWS V14.01,2013-05-03 18:25:00,
2013-05-03 14:35:00,63.3,47.4,30.21,SW,222,4.9,4.9,56,0.00,,---,0.00,VWS V14.01,2013-05-03 18:35:00,
2013-05-03 14:40:00,63.9,47.9,30.21,SSW,200,4.9,11.6,56,0.00,,---,0.00,VWS V14.01,2013-05-03 18:40:00,
2013-05-03 14:50:00,63.0,47.0,30.21,SW,232,4.0,13.0,56,0.00,,---,0.00,VWS V14.01,2013-05-03 18:50:00,
2013-05-03 14:55:00,63.0,47.0,30.21,SW,233,0.0,4.5,56,0.00,,---,0.00,VWS V14.01,2013-05-03 18:55:00,
2013-05-03 15:05:00,64.6,48.5,30.21,East,85,0.4,3.6,56,0.00,,---,0.00,VWS V14.01,2013-05-03 19:05:00,
2013-05-03 15:10:00,64.4,48.4,30.21,SSE,153,6.7,10.3,56,0.00,,---,0.00,VWS V14.01,2013-05-03 19:10:00,
2013-05-03 15:15:00,63.3,47.4,30.21,SSW,194,7.2,14.8,56,0.00,,---,0.00,VWS V14.01,2013-05-03 19:15:00,
2013-05-03 15:25:00,63.3,47.4,30.21,SE,140,1.8,9.4,56,0.00,,---,0.00,VWS V14.01,2013-05-03 19:25:00,
2013-05-03 15:30:00,63.7,47.7,30.21,East,92,2.7,9.4,56,0.00,,---,0.00,VWS V14.01,2013-05-03 19:30:00,
2013-05-03 15:40:00,64.0,48.0,30.21,SW,228,4.0,13.0,56,0.00,,---,0.00,VWS V14.01,2013-05-03 19:40:00,
2013-05-03 15:45:00,64.0,48.0,30.18,SW,228,0.0,9.8,56,0.00,,---,0.00,VWS V14.01,2013-05-03 19:45:00,
2013-05-03 15:50:00,64.6,48.5,30.18,ENE,66,0.0,4.0,56,0.00,,---,0.00,VWS V14.01,2013-05-03 19:50:00,
2013-05-03 15:55:00,66.2,49.6,30.18,ENE,66,2.7,6.3,55,0.00,,---,0.00,VWS V14.01,2013-05-03 19:55:00,
2013-05-03 16:00:00,65.7,49.1,30.18,ENE,67,5.4,10.3,55,0.00,,---,0.00,VWS V14.01,2013-05-03 20:00:00,
2013-05-03 16:05:00,64.9,48.9,30.18,East,88,6.3,6.7,56,0.00,,---,0.00,VWS V14.01,2013-05-03 20:05:00,
2013-05-03 16:15:00,62.4,46.5,30.18,NNE,29,5.4,7.2,56,0.00,,---,0.00,VWS V14.01,2013-05-03 20:15:00,
2013-05-03 16:20:00,63.7,47.7,30.18,ENE,64,4.0,6.3,56,0.00,,---,0.00,VWS V14.01,2013-05-03 20:20:00,
2013-05-03 16:25:00,64.2,48.2,30.18,SSW,195,2.7,6.7,56,0.00,,---,0.00,VWS V14.01,2013-05-03 20:25:00,
2013-05-03 16:35:00,64.9,48.9,30.18,East,81,0.0,7.2,56,0.00,,---,0.00,VWS V14.01,2013-05-03 20:35:00,
2013-05-03 16:40:00,64.9,48.9,30.18,ESE,118,1.3,8.9,56,0.00,,---,0.00,VWS V14.01,2013-05-03 20:40:00,
2013-05-03 16:45:00,64.6,48.5,30.18,ENE,77,1.3,6.7,56,0.00,,---,0.00,VWS V14.01,2013-05-03 20:45:00,
2013-05-03 16:55:00,63.5,47.5,30.18,ENE,71,4.9,8.9,56,0.00,,---,0.00,VWS V14.01,2013-05-03 20:55:00,
2013-05-03 17:00:00,63.7,47.7,30.18,East,90,2.7,8.9,56,0.00,,---,0.00,VWS V14.01,2013-05-03 21:00:00,
2013-05-03 17:10:00,63.3,47.4,30.18,ENE,57,3.6,8.5,56,0.00,,---,0.00,VWS V14.01,2013-05-03 21:10:00,
2013-05-03 17:15:00,63.0,47.0,30.18,East,95,4.5,4.5,56,0.00,,---,0.00,VWS V14.01,2013-05-03 21:15:00,
2013-05-03 17:25:00,62.8,46.9,30.18,ESE,121,8.1,10.3,56,0.00,,---,0.00,VWS V14.01,2013-05-03 21:25:00,
2013-05-03 17:30:00,62.8,46.9,30.18,ESE,104,2.2,8.1,56,0.00,,---,0.00,VWS V14.01,2013-05-03 21:30:00,
2013-05-03 17:35:00,63.1,47.2,30.18,NE,52,5.4,5.4,56,0.00,,---,0.00,VWS V14.01,2013-05-03 21:35:00,
2013-05-03 17:45:00,63.3,47.4,30.18,ENE,77,2.7,7.6,56,0.00,,---,0.00,VWS V14.01,2013-05-03 21:45:00,
2013-05-03 17:50:00,63.1,47.2,30.18,ENE,76,4.5,7.2,56,0.00,,---,0.00,VWS V14.01,2013-05-03 21:50:00,
2013-05-03 18:00:00,62.4,46.5,30.15,SE,139,4.9,8.9,56,0.00,,---,0.00,VWS V14.01,2013-05-03 22:00:00,
2013-05-03 18:05:00,62.4,46.5,30.15,East,91,4.0,9.4,56,0.00,,---,0.00,VWS V14.01,2013-05-03 22:05:00,
2013-05-03 18:15:00,62.4,46.5,30.15,ESE,112,4.5,6.3,56,0.00,,---,0.00,VWS V14.01,2013-05-03 22:15:00,
2013-05-03 18:20:00,62.4,46.5,30.15,East,95,0.0,4.9,56,0.00,,---,0.00,VWS V14.01,2013-05-03 22:20:00,
2013-05-03 18:25:00,62.2,46.4,30.15,East,95,0.9,3.1,56,0.00,,---,0.00,VWS V14.01,2013-05-03 22:25:00,
2013-05-03 18:35:00,61.7,45.9,30.15,East,90,4.0,4.0,56,0.00,,---,0.00,VWS V14.01,2013-05-03 22:35:00,
2013-05-03 18:40:00,61.5,45.7,30.15,ESE,122,7.2,7.2,56,0.00,,---,0.00,VWS V14.01,2013-05-03 22:40:00,
2013-05-03 18:45:00,61.2,45.4,30.15,ESE,123,5.4,8.5,56,0.00,,---,0.00,VWS V14.01,2013-05-03 22:45:00,
2013-05-03 18:55:00,60.6,44.8,30.15,ESE,123,2.7,8.5,56,0.00,,---,0.00,VWS V14.01,2013-05-03 22:55:00,
2013-05-03 19:00:00,60.3,44.5,30.15,SE,130,3.6,7.6,56,0.00,,---,0.00,VWS V14.01,2013-05-03 23:00:00,
2013-05-03 19:05:00,59.9,44.2,30.15,SE,130,0.0,4.5,56,0.00,,---,0.00,VWS V14.01,2013-05-03 23:05:00,
2013-05-03 19:10:00,59.5,44.3,30.15,SE,130,4.5,4.5,57,0.00,,---,0.00,VWS V14.01,2013-05-03 23:10:00,
2013-05-03 19:15:00,59.0,43.8,30.15,SE,132,0.0,5.4,57,0.00,,---,0.00,VWS V14.01,2013-05-03 23:15:00,
2013-05-03 19:20:00,57.9,42.8,30.15,SE,125,0.9,4.0,57,0.00,,---,0.00,VWS V14.01,2013-05-03 23:20:00,
2013-05-03 19:30:00,55.8,41.2,30.18,South,185,4.0,4.5,58,0.00,,---,0.00,VWS V14.01,2013-05-03 23:30:00,
2013-05-03 19:35:00,54.5,40.0,30.18,South,185,0.0,5.4,58,0.00,,---,0.00,VWS V14.01,2013-05-03 23:35:00,
2013-05-03 19:45:00,50.5,36.8,30.18,South,187,0.0,0.0,59,0.00,,---,0.00,VWS V14.01,2013-05-03 23:45:00,
2013-05-03 19:50:00,50.4,36.6,30.18,South,187,0.0,0.0,59,0.00,,---,0.00,VWS V14.01,2013-05-03 23:50:00,
2013-05-03 19:55:00,49.5,35.7,30.18,South,187,0.0,0.0,59,0.00,,---,0.00,VWS V14.01,2013-05-03 23:55:00,
2013-05-03 20:05:00,47.7,34.0,30.18,South,187,0.0,0.0,59,0.00,,---,0.00,VWS V14.01,2013-05-04 00:05:00,
2013-05-03 20:10:00,46.8,33.6,30.18,South,185,0.4,0.4,60,0.00,,---,0.00,VWS V14.01,2013-05-04 00:10:00,
2013-05-03 20:15:00,46.4,33.3,30.18,East,98,0.0,3.6,60,0.00,,---,0.00,VWS V14.01,2013-05-04 00:15:00,
2013-05-03 20:25:00,47.8,34.2,30.18,ENE,71,4.5,4.9,59,0.00,,---,0.00,VWS V14.01,2013-05-04 00:25:00,
2013-05-03 20:30:00,47.7,34.0,30.18,ENE,57,2.2,4.9,59,0.00,,---,0.00,VWS V14.01,2013-05-04 00:30:00,
2013-05-03 20:40:00,46.6,33.5,30.18,ENE,73,0.0,3.1,60,0.00,,---,0.00,VWS V14.01,2013-05-04 00:40:00,
2013-05-03 20:45:00,45.5,32.4,30.18,ENE,73,0.0,0.0,60,0.00,,---,0.00,VWS V14.01,2013-05-04 00:45:00,
2013-05-03 20:50:00,46.8,32.3,30.18,ESE,118,3.1,5.4,57,0.00,,---,0.00,VWS V14.01,2013-05-04 00:50:00,
2013-05-03 21:00:00,48.0,34.4,30.18,ESE,109,0.0,0.0,59,0.00,,---,0.00,VWS V14.01,2013-05-04 01:00:00,
2013-05-03 21:05:00,45.7,31.3,30.18,ESE,109,0.0,0.0,57,0.00,,---,0.00,VWS V14.01,2013-05-04 01:05:00,
2013-05-03 21:10:00,45.5,31.2,30.18,ESE,122,0.0,4.0,57,0.00,,---,0.00,VWS V14.01,2013-05-04 01:10:00,
2013-05-03 21:20:00,45.9,31.5,30.21,South,176,2.2,4.5,57,0.00,,---,0.00,VWS V14.01,2013-05-04 01:20:00,
2013-05-03 21:25:00,46.0,31.7,30.21,South,176,3.6,5.4,57,0.00,,---,0.00,VWS V14.01,2013-05-04 01:25:00,
2013-05-03 21:35:00,46.2,31.8,30.21,SSE,161,3.1,6.3,57,0.00,,---,0.00,VWS V14.01,2013-05-04 01:35:00,
2013-05-03 21:40:00,46.2,31.8,30.21,South,190,2.7,5.8,57,0.00,,---,0.00,VWS V14.01,2013-05-04 01:40:00,
2013-05-03 21:45:00,46.2,31.8,30.21,South,180,2.2,4.9,57,0.00,,---,0.00,VWS V14.01,2013-05-04 01:45:00,
2013-05-03 21:55:00,46.2,31.8,30.21,South,177,4.9,6.7,57,0.00,,---,0.00,VWS V14.01,2013-05-04 01:55:00,
2013-05-03 22:00:00,46.4,32.0,30.18,South,187,5.4,12.5,57,0.00,,---,0.00,VWS V14.01,2013-05-04 02:00:00,
2013-05-03 22:10:00,46.8,32.3,30.18,SSW,192,6.3,8.9,57,0.00,,---,0.00,VWS V14.01,2013-05-04 02:10:00,
2013-05-03 22:15:00,46.2,31.8,30.21,SSW,198,4.9,7.2,57,0.00,,---,0.00,VWS V14.01,2013-05-04 02:15:00,
2013-05-03 22:20:00,46.0,31.7,30.21,SSW,201,2.7,8.5,57,0.00,,---,0.00,VWS V14.01,2013-05-04 02:20:00,
2013-05-03 22:30:00,45.9,31.5,30.21,SSW,198,8.1,8.1,57,0.00,,---,0.00,VWS V14.01,2013-05-04 02:30:00,
2013-05-03 22:35:00,45.9,31.5,30.21,South,191,4.0,10.7,57,0.00,,---,0.00,VWS V14.01,2013-05-04 02:35:00,
2013-05-03 22:45:00,45.5,31.2,30.21,South,188,6.7,7.6,57,0.00,,---,0.00,VWS V14.01,2013-05-04 02:45:00,
2013-05-03 22:50:00,45.3,31.0,30.21,SSW,194,4.9,10.7,57,0.00,,---,0.00,VWS V14.01,2013-05-04 02:50:00,
2013-05-03 22:55:00,45.0,30.7,30.21,South,185,4.5,7.2,57,0.00,,---,0.00,VWS V14.01,2013-05-04 02:55:00,
2013-05-03 23:05:00,44.8,30.5,30.21,SSW,201,8.1,9.8,57,0.00,,---,0.00,VWS V14.01,2013-05-04 03:05:00,
2013-05-03 23:10:00,44.8,30.5,30.21,South,183,4.5,9.4,57,0.00,,---,0.00,VWS V14.01,2013-05-04 03:10:00,
2013-05-03 23:20:00,44.6,30.3,30.21,SSE,167,7.6,10.3,57,0.00,,---,0.00,VWS V14.01,2013-05-04 03:20:00,
2013-05-03 23:25:00,44.6,30.3,30.21,SSW,195,7.6,9.4,57,0.00,,---,0.00,VWS V14.01,2013-05-04 03:25:00,
2013-05-03 23:30:00,44.8,30.5,30.21,SSW,207,7.6,9.8,57,0.00,,---,0.00,VWS V14.01,2013-05-04 03:30:00,
2013-05-03 23:40:00,44.6,30.3,30.21,SSW,197,6.3,11.6,57,0.00,,---,0.00,VWS V14.01,2013-05-04 03:40:00,
2013-05-03 23:45:00,44.2,30.0,30.21,SSW,202,7.2,13.0,57,0.00,,---,0.00,VWS V14.01,2013-05-04 03:45:00,
2013-05-03 23:50:00,44.2,30.0,30.21,SSW,208,9.4,11.2,57,0.00,,---,0.00,VWS V14.01,2013-05-04 03:50:00,
2013-05-03 23:55:00,44.2,30.0,30.21,SW,221,7.2,11.6,57,0.00,,---,0.00,VWS V14.01,2013-05-04 03:55:00,